Data for 12/13/2005

Time Sea-Level Adjusted Pressure Absolute Pressure Temperature Relative Humidity Dew Point   
(mb) (inHg) (mb) (inHg) (C) (F) (%) (C) (F)
00:05 1009 29.8 838 24.75 -5.9 21.4 75 -9.6 14.7
00:10 1008 29.77 838 24.75 -6.2 20.8 76 -9.8 14.4
00:15 1008 29.77 838 24.75 -6.7 19.9 78 -10 14
00:20 1008 29.77 837 24.72 -6.6 20.2 77 -10 14
00:25 1008 29.77 837 24.72 -6 21.2 76 -9.6 14.7
00:30 1008 29.77 837 24.72 -5.8 21.6 74 -9.6 14.7
00:35 1008 29.77 837 24.72 -5.6 22 74 -9.5 14.8
00:40 1008 29.77 837 24.72 -5.3 22.4 73 -9.4 15
00:45 1008 29.77 837 24.72 -5.1 22.9 70 -9.6 14.6
00:50 1008 29.77 837 24.72 -4.8 23.4 69 -9.6 14.8
00:55 1008 29.77 837 24.72 -4.4 24.1 68 -9.5 14.9
01:00 1008 29.77 837 24.72 -4.2 24.5 66 -9.6 14.7
01:05 1008 29.77 837 24.72 -5.5 22.2 72 -9.8 14.4
01:10 1008 29.77 837 24.72 -5.3 22.4 71 -9.9 14.3
01:15 1008 29.77 837 24.72 -5 23 70 -9.7 14.5
01:20 1008 29.77 837 24.72 -5.5 22 71 -9.9 14.1
01:25 1008 29.77 837 24.72 -5.2 22.6 70 -9.9 14.3
01:30 1008 29.77 837 24.72 -5.3 22.4 70 -9.9 14.1
01:35 1008 29.77 837 24.72 -5.5 22 71 -10 14
01:40 1007 29.74 837 24.72 -5.4 22.4 71 -9.9 14.2
01:45 1007 29.74 837 24.72 -4.9 23.2 68 -9.8 14.3
01:50 1007 29.74 837 24.72 -4.4 24.2 66 -9.8 14.4
01:55 1007 29.74 837 24.72 -4.5 23.9 67 -9.7 14.6
02:00 1007 29.74 837 24.72 -5.2 22.6 71 -9.7 14.5
02:05 1008 29.77 837 24.72 -4.8 23.3 70 -9.5 14.9
02:10 1008 29.77 837 24.72 -4.6 23.8 69 -9.4 15.1
02:15 1008 29.77 837 24.72 -4.3 24.3 69 -9.1 15.7
02:20 1008 29.77 837 24.72 -3.6 25.4 66 -9.1 15.6
02:25 1008 29.77 837 24.72 -3.6 25.6 67 -8.8 16.2
02:30 1008 29.77 837 24.72 -3.2 26.3 66 -8.7 16.3
02:35 1008 29.77 837 24.72 -2.6 27.3 63 -8.7 16.3
02:40 1008 29.77 837 24.72 -3.4 26 65 -9.1 15.6
02:45 1008 29.77 837 24.72 -4.5 23.8 67 -9.7 14.6
02:50 1008 29.77 838 24.75 -5.6 21.9 73 -9.7 14.6
02:55 1008 29.77 837 24.72 -5.3 22.5 73 -9.4 15
03:00 1008 29.77 837 24.72 -4.9 23.1 75 -8.7 16.3
03:05 1008 29.77 837 24.72 -4.3 24.2 73 -8.5 16.7
03:10 1008 29.77 837 24.72 -3.3 26.1 66 -8.7 16.3
03:15 1008 29.77 837 24.72 -3.1 26.4 64 -9 15.8
03:20 1008 29.77 837 24.72 -3.1 26.4 65 -8.9 16
03:25 1008 29.77 838 24.75 -3 26.6 64 -8.8 16.1
03:30 1008 29.77 838 24.75 -2.6 27.4 64 -8.6 16.6
03:35 1009 29.8 838 24.75 -2.3 27.8 63 -8.5 16.7
03:40 1009 29.8 838 24.75 -2.6 27.4 63 -8.7 16.3
03:45 1009 29.8 838 24.75 -3.1 26.3 66 -8.6 16.5
03:50 1009 29.8 838 24.75 -3.6 25.4 67 -8.8 16.1
03:55 1009 29.8 838 24.75 -4 24.9 68 -8.9 15.9
04:00 1009 29.8 838 24.75 -4 24.7 69 -9 15.8
04:05 1009 29.8 838 24.75 -4.3 24.2 69 -9.1 15.5
04:10 1009 29.8 838 24.75 -4.6 23.8 70 -9.2 15.5
04:15 1009 29.8 838 24.75 -4.4 24.1 71 -8.8 16.2
04:20 1009 29.8 838 24.75 -3.7 25.3 70 -8.5 16.7
04:25 1009 29.8 838 24.75 -3.6 25.6 68 -8.6 16.6
04:30 1009 29.8 838 24.75 -3.3 26.1 68 -8.3 17
04:35 1009 29.8 838 24.75 -3 26.5 68 -8.2 17.2
04:40 1009 29.8 838 24.75 -2.8 26.9 68 -8 17.6
04:45 1009 29.8 838 24.75 -2.5 27.5 66 -8 17.6
04:50 1009 29.8 838 24.75 -2.3 27.9 65 -8 17.7
04:55 1009 29.8 838 24.75 -2.2 28 65 -7.9 17.7
05:00 1009 29.8 839 24.78 -2.1 28.3 64 -8.1 17.5
05:05 1009 29.8 839 24.78 -1.7 28.9 63 -7.9 17.8
05:10 1009 29.8 838 24.75 -1.6 29.1 62 -8 17.6
05:15 1009 29.8 838 24.75 -1.5 29.3 62 -7.9 17.8
05:20 1009 29.8 838 24.75 -1.9 28.6 64 -7.8 18
05:25 1009 29.8 838 24.75 -2.1 28.2 64 -8 17.6
05:30 1009 29.8 839 24.78 -2.2 28 67 -7.6 18.3
05:35 1009 29.8 839 24.78 -3.5 25.7 71 -8 17.5
05:40 1009 29.8 839 24.78 -3.5 25.6 71 -8.1 17.4
05:45 1010 29.83 839 24.78 -3.7 25.4 70 -8.3 17
05:50 1010 29.83 839 24.78 -3.3 26 69 -8.2 17.3
05:55 1010 29.83 839 24.78 -3.1 26.5 70 -7.8 17.9
06:00 1010 29.83 839 24.78 -3 26.5 68 -8 17.5
06:05 1010 29.83 839 24.78 -3.1 26.5 69 -8 17.5
06:10 1010 29.83 839 24.78 -2.9 26.7 69 -7.8 17.9
06:15 1010 29.83 839 24.78 -3 26.7 69 -7.9 17.7
06:20 1010 29.83 839 24.78 -2.9 26.8 68 -8 17.6
06:25 1010 29.83 839 24.78 -2.7 27.2 68 -7.9 17.8
06:30 1010 29.83 840 24.81 -2.7 27.2 68 -7.7 18.1
06:35 1010 29.83 840 24.81 -2.7 27.1 69 -7.7 18.1
06:40 1011 29.85 840 24.81 -2.9 26.8 69 -7.8 18
06:45 1011 29.85 840 24.81 -3.1 26.4 70 -7.8 17.9
06:50 1011 29.85 840 24.81 -3.3 26.1 72 -7.7 18.1
06:55 1011 29.85 840 24.81 -3.5 25.7 73 -7.7 18.2
07:00 1011 29.85 840 24.81 -4 24.9 76 -7.5 18.4
07:05 1011 29.85 840 24.81 -4.2 24.4 79 -7.4 18.6
07:10 1011 29.85 840 24.81 -4.3 24.2 83 -6.9 19.6
07:15 1011 29.85 840 24.81 -4.4 24.1 85 -6.6 20.2
07:20 1011 29.85 840 24.81 -4.5 23.8 85 -6.6 20
07:25 1011 29.85 840 24.81 -4.4 24.2 87 -6.3 20.7
07:30 1011 29.85 840 24.81 -4.2 24.5 87 -6.1 21.1
07:35 1011 29.85 840 24.81 -4.2 24.5 88 -5.9 21.4
07:40 1011 29.85 840 24.81 -4.1 24.6 89 -5.7 21.7
07:45 1011 29.85 840 24.81 -4 24.9 88 -5.7 21.8
07:50 1011 29.85 840 24.81 -3.8 25.2 90 -5.2 22.6
07:55 1011 29.85 840 24.81 -3.8 25.2 90 -5.2 22.6
08:00 1011 29.85 840 24.81 -3.7 25.3 88 -5.4 22.3
08:05 1011 29.85 840 24.81 -3.5 25.7 88 -5.2 22.6
08:10 1011 29.85 840 24.81 -3.4 25.8 89 -5.1 22.9
08:15 1011 29.85 840 24.81 -3.3 26.1 87 -5.1 22.7
08:20 1011 29.85 840 24.81 -3 26.6 82 -5.7 21.7
08:25 1011 29.85 840 24.81 -2.7 27.1 80 -5.7 21.8
08:30 1011 29.85 840 24.81 -2.6 27.3 81 -5.3 22.4
08:35 1011 29.85 840 24.81 -2.8 27 81 -5.6 22
08:40 1011 29.85 840 24.81 -2.7 27.1 79 -5.8 21.5
08:45 1011 29.85 840 24.81 -2.5 27.6 75 -6.3 20.6
08:50 1011 29.85 840 24.81 -2.2 28 67 -7.6 18.4
08:55 1011 29.85 840 24.81 -1.9 28.5 65 -7.7 18.2
09:00 1011 29.85 841 24.83 -1.9 28.6 63 -8 17.6
09:05 1011 29.85 841 24.83 -1.9 28.6 61 -8.4 16.8
09:10 1012 29.88 841 24.83 -2 28.4 61 -8.4 16.8
09:15 1012 29.88 841 24.83 -2.1 28.3 61 -8.6 16.5
09:20 1012 29.88 841 24.83 -2.1 28.3 62 -8.4 17
09:25 1012 29.88 841 24.83 -2 28.4 63 -8.1 17.4
09:30 1012 29.88 841 24.83 -2 28.5 64 -8 17.6
09:35 1012 29.88 841 24.83 -1.9 28.5 63 -8 17.6
09:40 1012 29.88 841 24.83 -1.9 28.6 63 -7.9 17.7
09:45 1012 29.88 842 24.86 -1.9 28.7 62 -8.3 17.1
09:50 1012 29.88 842 24.86 -1.9 28.5 60 -8.6 16.5
09:55 1013 29.91 842 24.86 -1.9 28.6 60 -8.7 16.3
10:00 1013 29.91 842 24.86 -1.9 28.6 60 -8.7 16.4
10:05 1013 29.91 842 24.86 -1.9 28.5 60 -8.8 16.2
10:10 1013 29.91 842 24.86 -2 28.4 60 -8.7 16.4
10:15 1013 29.91 842 24.86 -2 28.5 58 -9.2 15.4
10:20 1013 29.91 842 24.86 -2 28.4 59 -9 15.9
10:25 1013 29.91 842 24.86 -2 28.3 60 -8.8 16.1
10:30 1013 29.91 842 24.86 -2.1 28.2 59 -9.1 15.6
10:35 1013 29.91 842 24.86 -2 28.3 59 -8.9 15.9
10:40 1013 29.91 842 24.86 -1.8 28.7 57 -9.3 15.3
10:45 1013 29.91 842 24.86 -1.8 28.8 57 -9.2 15.5
10:50 1013 29.91 842 24.86 -1.8 28.8 58 -8.9 16
10:55 1013 29.91 842 24.86 -1.6 29.1 57 -9.1 15.7
11:00 1013 29.91 842 24.86 -1.8 28.8 59 -8.7 16.4
11:05 1013 29.91 842 24.86 -1.9 28.6 61 -8.5 16.7
11:10 1013 29.91 842 24.86 -2 28.5 64 -8 17.6
11:15 1013 29.91 842 24.86 -2.1 28.2 66 -7.6 18.3
11:20 1013 29.91 842 24.86 -2.3 27.9 69 -7.1 19.2
11:25 1013 29.91 842 24.86 -2.3 27.8 72 -6.8 19.8
11:30 1013 29.91 842 24.86 -2.4 27.6 73 -6.6 20.1
11:35 1013 29.91 843 24.89 -2.2 28 73 -6.5 20.3
11:40 1013 29.91 843 24.89 -2.3 27.8 74 -6.3 20.7
11:45 1013 29.91 843 24.89 -2.6 27.4 77 -6.1 21
11:50 1013 29.91 843 24.89 -3.3 26 79 -6.5 20.4
11:55 1013 29.91 843 24.89 -3.5 25.7 80 -6.4 20.4
12:00 1013 29.91 843 24.89 -3.6 25.4 80 -6.5 20.2
12:05 1013 29.91 843 24.89 -4 24.8 80 -6.9 19.6
12:10 1013 29.91 843 24.89 -4 24.8 79 -7.1 19.2
12:15 1013 29.91 843 24.89 -3.4 25.9 74 -7.5 18.5
12:20 1013 29.91 843 24.89 -2.8 27 70 -7.6 18.4
12:25 1013 29.91 843 24.89 -2.6 27.4 70 -7.2 19
12:30 1013 29.91 843 24.89 -2.5 27.5 73 -6.7 20
12:35 1014 29.94 843 24.89 -2.6 27.3 75 -6.5 20.3
12:40 1014 29.94 843 24.89 -2.6 27.2 75 -6.4 20.4
12:45 1014 29.94 843 24.89 -2.7 27.1 77 -6.1 20.9
12:50 1014 29.94 843 24.89 -3 26.7 79 -6.2 20.9
12:55 1014 29.94 843 24.89 -3.2 26.3 80 -6.1 21
13:00 1014 29.94 843 24.89 -3.5 25.8 83 -5.9 21.3
13:05 1014 29.94 843 24.89 -3.5 25.7 86 -5.5 22.1
13:10 1014 29.94 843 24.89 -3.4 25.8 87 -5.3 22.5
13:15 1014 29.94 843 24.89 -3.5 25.8 88 -5.2 22.6
13:20 1014 29.94 843 24.89 -3.5 25.7 88 -5.2 22.7
13:25 1014 29.94 843 24.89 -3.4 26 89 -4.9 23.2
13:30 1014 29.94 843 24.89 -3.1 26.4 86 -5.1 22.8
13:35 1014 29.94 843 24.89 -3.1 26.4 88 -4.9 23.2
13:40 1014 29.94 843 24.89 -3 26.6 86 -5.1 22.9
13:45 1014 29.94 843 24.89 -3.2 26.2 87 -5 23
13:50 1014 29.94 844 24.92 -3 26.5 87 -4.9 23.1
13:55 1014 29.94 844 24.92 -3 26.6 87 -5 23.1
14:00 1014 29.94 844 24.92 -3.1 26.4 87 -5 23.1
14:05 1014 29.94 844 24.92 -3.2 26.2 86 -5.3 22.5
14:10 1015 29.97 844 24.92 -3.3 26.1 87 -5.2 22.6
14:15 1015 29.97 844 24.92 -3.2 26.3 86 -5.3 22.5
14:20 1015 29.97 844 24.92 -3.2 26.2 86 -5.3 22.5
14:25 1015 29.97 844 24.92 -3.3 26.1 86 -5.3 22.5
14:30 1015 29.97 844 24.92 -3.4 25.9 87 -5.2 22.6
14:35 1015 29.97 844 24.92 -3.7 25.4 88 -5.5 22.2
14:40 1015 29.97 844 24.92 -3.6 25.6 86 -5.5 22
14:45 1015 29.97 844 24.92 -3.3 26.1 83 -5.7 21.7
14:50 1015 29.97 844 24.92 -3.3 26 84 -5.7 21.7
14:55 1015 29.97 844 24.92 -3.2 26.2 85 -5.5 22.1
15:00 1015 29.97 844 24.92 -3.4 25.9 85 -5.5 22.1
15:05 1015 29.97 844 24.92 -3.4 25.9 84 -5.7 21.7
15:10 1015 29.97 844 24.92 -3.5 25.7 85 -5.8 21.6
15:15 1015 29.97 845 24.95 -3.6 25.6 85 -5.8 21.6
15:20 1015 29.97 845 24.95 -3.7 25.4 85 -5.9 21.4
15:25 1015 29.97 845 24.95 -3.8 25.1 85 -6 21.2
15:30 1016 30 845 24.95 -3.9 25 85 -6 21.1
15:35 1016 30 845 24.95 -3.7 25.3 84 -6.1 21
15:40 1016 30 845 24.95 -3.6 25.5 82 -6.2 20.8
15:45 1016 30 845 24.95 -3.4 25.9 80 -6.4 20.6
15:50 1016 30 845 24.95 -3.3 26 79 -6.6 20.2
15:55 1016 30 845 24.95 -3.5 25.8 79 -6.6 20
16:00 1016 30 845 24.95 -3.5 25.8 78 -6.7 20
16:05 1016 30 845 24.95 -3.5 25.6 78 -6.8 19.8
16:10 1016 30 845 24.95 -3.7 25.3 80 -6.6 20.1
16:15 1016 30 845 24.95 -3.8 25.1 81 -6.7 20
16:20 1016 30 845 24.95 -3.9 24.9 81 -6.8 19.8
16:25 1016 30 845 24.95 -4 24.8 82 -6.6 20.1
16:30 1016 30 845 24.95 -4.1 24.7 84 -6.4 20.6
16:35 1016 30 846 24.98 -4.2 24.5 86 -6.3 20.7
16:40 1016 30 846 24.98 -4.3 24.3 86 -6.3 20.7
16:45 1016 30 846 24.98 -4.3 24.3 88 -6 21.1
16:50 1016 30 846 24.98 -4.3 24.2 88 -6.1 21
16:55 1016 30 846 24.98 -4.4 24.1 87 -6.2 20.8
17:00 1016 30 846 24.98 -4.5 24 88 -6.2 20.9
17:05 1017 30.03 846 24.98 -4.4 24 87 -6.3 20.7
17:10 1017 30.03 846 24.98 -4.3 24.2 84 -6.7 20
17:15 1017 30.03 846 24.98 -4.3 24.3 84 -6.6 20.1
17:20 1017 30.03 846 24.98 -4.3 24.2 84 -6.6 20.1
17:25 1017 30.03 846 24.98 -4.4 24.1 86 -6.5 20.3
17:30 1017 30.03 846 24.98 -4.5 23.9 85 -6.7 20
17:35 1017 30.03 846 24.98 -4.5 23.9 84 -6.8 19.7
17:40 1017 30.03 846 24.98 -4.4 24 82 -7 19.3
17:45 1017 30.03 846 24.98 -4.2 24.4 79 -7.4 18.6
17:50 1017 30.03 846 24.98 -4.1 24.6 75 -8 17.7
17:55 1017 30.03 846 24.98 -3.9 24.9 74 -8 17.7
18:00 1017 30.03 847 25.01 -3.9 25 73 -8 17.7
18:05 1017 30.03 847 25.01 -3.9 24.9 73 -8.1 17.4
18:10 1017 30.03 847 25.01 -4.1 24.6 72 -8.4 16.8
18:15 1017 30.03 847 25.01 -4.1 24.6 73 -8.3 17.1
18:20 1017 30.03 847 25.01 -4.2 24.4 73 -8.4 17
18:25 1018 30.06 847 25.01 -4.3 24.4 73 -8.4 16.8
18:30 1018 30.06 847 25.01 -4.3 24.3 73 -8.5 16.7
18:35 1018 30.06 847 25.01 -4.4 24 72 -8.7 16.3
18:40 1018 30.06 847 25.01 -4.6 23.7 73 -8.7 16.3
18:45 1018 30.06 847 25.01 -4.7 23.6 72 -8.9 16
18:50 1018 30.06 847 25.01 -4.9 23.3 73 -9 15.8
18:55 1018 30.06 847 25.01 -5.1 22.8 74 -9 15.7
19:00 1018 30.06 847 25.01 -5.4 22.3 74 -9.3 15.2
19:05 1018 30.06 847 25.01 -5.4 22.3 73 -9.5 15
19:10 1018 30.06 847 25.01 -5.2 22.6 71 -9.6 14.6
19:15 1018 30.06 847 25.01 -5.2 22.6 72 -9.5 14.8
19:20 1018 30.06 847 25.01 -5.2 22.6 71 -9.7 14.6
19:25 1018 30.06 847 25.01 -5.1 22.8 69 -9.9 14.2
19:30 1018 30.06 848 25.04 -5 22.9 69 -10 14.1
19:35 1018 30.06 848 25.04 -5 23 67 -10.1 13.8
19:40 1018 30.06 848 25.04 -5.1 22.9 67 -10.2 13.6
19:45 1018 30.06 848 25.04 -5 23 66 -10.4 13.3
19:50 1018 30.06 848 25.04 -4.9 23.1 65 -10.5 13.1
19:55 1018 30.06 848 25.04 -5.1 22.8 64 -10.8 12.5
20:00 1018 30.06 848 25.04 -5.1 22.8 64 -10.9 12.4
20:05 1018 30.06 848 25.04 -5.2 22.6 65 -10.7 12.7
20:10 1018 30.06 848 25.04 -5.4 22.3 64 -11.2 11.9
20:15 1018 30.06 848 25.04 -5.5 22.2 64 -11.3 11.7
20:20 1019 30.09 848 25.04 -5.5 22.1 64 -11.3 11.7
20:25 1019 30.09 848 25.04 -5.6 21.9 65 -11.2 11.8
20:30 1019 30.09 848 25.04 -5.6 21.9 64 -11.4 11.6
20:35 1019 30.09 848 25.04 -5.6 21.9 64 -11.4 11.4
20:40 1019 30.09 848 25.04 -5.7 21.8 65 -11.4 11.5
20:45 1019 30.09 848 25.04 -5.6 22 64 -11.3 11.7
20:50 1019 30.09 848 25.04 -5.6 22 64 -11.2 11.8
20:55 1019 30.09 848 25.04 -5.5 22.1 62 -11.6 11.1
21:00 1019 30.09 848 25.04 -5.4 22.2 63 -11.4 11.4
21:05 1019 30.09 848 25.04 -5.4 22.3 62 -11.5 11.3
21:10 1019 30.09 848 25.04 -5.4 22.4 64 -11.2 11.8
21:15 1019 30.09 848 25.04 -5.3 22.4 64 -11.1 12
21:20 1019 30.09 848 25.04 -5.3 22.4 62 -11.5 11.3
21:25 1019 30.09 848 25.04 -5.4 22.3 63 -11.4 11.6
21:30 1019 30.09 848 25.04 -5.3 22.4 63 -11.3 11.6
21:35 1019 30.09 848 25.04 -5.4 22.3 63 -11.4 11.5
21:40 1019 30.09 848 25.04 -5.8 21.6 65 -11.3 11.7
21:45 1019 30.09 848 25.04 -6.2 20.9 67 -11.3 11.7
21:50 1019 30.09 848 25.04 -6.1 21 68 -11.1 12
21:55 1019 30.09 849 25.07 -5.7 21.7 66 -11 12.2
22:00 1019 30.09 849 25.07 -5.5 22.1 67 -10.7 12.7
22:05 1019 30.09 849 25.07 -5.4 22.3 67 -10.6 13
22:10 1019 30.09 849 25.07 -5.5 22.2 66 -10.8 12.5
22:15 1020 30.12 849 25.07 -5.5 22.1 65 -11.1 12.1
22:20 1020 30.12 849 25.07 -5.4 22.2 65 -11.1 12.1
22:25 1020 30.12 849 25.07 -5.4 22.2 65 -11.1 12.1
22:30 1020 30.12 849 25.07 -5.4 22.3 66 -10.9 12.5
22:35 1020 30.12 849 25.07 -5.2 22.6 64 -11 12.3
22:40 1020 30.12 849 25.07 -5.1 22.8 64 -10.9 12.4
22:45 1020 30.12 849 25.07 -5.1 22.8 64 -10.9 12.4
22:50 1020 30.12 849 25.07 -5 22.9 63 -11.1 12.1
22:55 1020 30.12 849 25.07 -5 23 64 -10.8 12.6
23:00 1020 30.12 849 25.07 -5 22.9 64 -10.9 12.5
23:05 1020 30.12 849 25.07 -5.1 22.9 64 -10.9 12.4
23:10 1020 30.12 849 25.07 -5 23 64 -10.8 12.6
23:15 1020 30.12 849 25.07 -5 23.1 64 -10.7 12.7
23:20 1020 30.12 849 25.07 -5.1 22.9 65 -10.7 12.8
23:25 1020 30.12 849 25.07 -5 23 64 -10.7 12.7
23:30 1020 30.12 849 25.07 -5 23 63 -10.9 12.3
23:35 1020 30.12 849 25.07 -5.1 22.8 63 -11.1 12.1
23:40 1020 30.12 849 25.07 -5.3 22.5 63 -11.3 11.7
23:45 1020 30.12 849 25.07 -5.2 22.6 63 -11.2 11.9
23:50 1020 30.12 849 25.07 -5.2 22.7 64 -11 12.3
23:55 1020 30.12 849 25.07 -5.1 22.8 61 -11.5 11.4
24:00 1020 30.12 849 25.07 -5.3 22.5 62 -11.4 11.4